Terminal Aerodrome Forecast
Issued by NWS Green Bay, WI

Home | Current Version | Previous Version | Text Only | Print | Product List | Glossary On
Versions: 1 2 3 4 5 6 7 8 9 10 11 12 13 14 15 16 17 18 19 20 21 22 23
000
FTUS43 KGRB 281737
TAFGRB
TAF
KGRB 281737Z 2818/2918 27004KT P6SM SCT025
      TEMPO 2818/2819 BKN025
     FM281900 19003KT P6SM SCT025
     FM290600 17003KT 6SM BR FEW250
     FM290800 VRB03KT 3SM BR SCT250
      TEMPO 2908/2912 1SM BR BKN002
     FM291500 18005KT P6SM BKN025=

USA.gov is the U.S. government's official web portal to all federal, state and local government web resources and services.